Time;durP1;ratioP1;P1;durP2;ratioP2;P2;SDS_P1;SDS_P2;PMS_P1;PMS_P2;Temp;Humidity;BMP_temperature;BMP_pressure;BME280_temperature;BME280_humidity;BME280_pressure;Samples;Min_cycle;Max_cycle;Signal;HPM_P1;HPM_P2
2021/12/07 00:01:38;;;;;;;19.80;7.80;;;28.70;86.00;;;;;;5065416;28;20214;-54
2021/12/07 00:04:05;;;;;;;14.65;7.43;;;28.70;85.80;;;;;;5060965;28;20041;-57
2021/12/07 00:06:32;;;;;;;22.27;8.93;;;28.70;85.80;;;;;;5065839;28;20017;-55
2021/12/07 00:08:59;;;;;;;30.80;16.17;;;28.70;85.70;;;;;;5063080;28;20020;-53
2021/12/07 00:11:28;;;;;;;28.55;18.38;;;28.60;85.50;;;;;;5061731;28;20036;-60
2021/12/07 00:13:59;;;;;;;22.65;11.20;;;28.60;85.60;;;;;;5064011;28;20032;-55
2021/12/07 00:16:27;;;;;;;13.07;7.93;;;28.60;85.50;;;;;;5064057;28;20051;-54
2021/12/07 00:18:57;;;;;;;15.52;7.95;;;28.60;85.40;;;;;;5062957;28;20317;-54
2021/12/07 00:21:24;;;;;;;14.32;7.15;;;28.60;85.40;;;;;;5065002;28;20095;-55
2021/12/07 00:23:51;;;;;;;14.00;7.47;;;28.60;85.30;;;;;;5062537;28;20013;-55
2021/12/07 00:26:17;;;;;;;10.25;6.28;;;28.60;85.20;;;;;;5064945;28;20087;-55
2021/12/07 00:28:44;;;;;;;14.80;6.72;;;28.60;85.20;;;;;;5065596;28;20020;-55
2021/12/07 00:31:23;;;;;;;19.45;6.53;;;28.60;85.30;;;;;;5064276;28;20024;-57
2021/12/07 00:34:06;;;;;;;14.25;5.88;;;28.60;85.30;;;;;;5063697;28;20344;-51
2021/12/07 00:36:32;;;;;;;;;;;28.50;85.10;;;;;;5063790;28;20033;-54
2021/12/07 00:38:58;;;;;;;11.15;6.80;;;28.50;85.20;;;;;;5064647;28;19905;-51
2021/12/07 00:41:25;;;;;;;22.80;6.72;;;28.50;85.10;;;;;;5065274;28;20257;-54
2021/12/07 00:43:52;;;;;;;15.82;6.78;;;28.50;85.70;;;;;;5064160;28;20021;-53
2021/12/07 00:46:19;;;;;;;18.58;6.38;;;28.50;85.20;;;;;;5060797;28;20265;-54
2021/12/07 00:48:45;;;;;;;20.15;6.32;;;28.50;85.30;;;;;;5062405;28;20332;-57
2021/12/07 00:51:12;;;;;;;9.23;6.20;;;28.40;85.20;;;;;;5063339;28;20359;-58
2021/12/07 00:53:42;;;;;;;10.07;5.68;;;28.40;85.10;;;;;;5062946;28;20257;-55
2021/12/07 00:56:09;;;;;;;15.98;6.43;;;28.40;85.20;;;;;;5064159;28;20013;-57
2021/12/07 00:58:35;;;;;;;12.77;6.70;;;28.40;85.10;;;;;;5063915;28;20028;-55
2021/12/07 01:01:08;;;;;;;13.80;6.68;;;28.40;85.10;;;;;;5064169;28;20035;-54
2021/12/07 01:03:36;;;;;;;12.55;6.18;;;28.40;84.90;;;;;;5065559;28;20017;-54
2021/12/07 01:25:18;;;;;;;23.38;8.35;;;28.40;85.40;;;;;;5065227;28;20023;-54
2021/12/07 01:27:48;;;;;;;19.15;7.38;;;28.30;85.70;;;;;;5065619;28;20141;-54
2021/12/07 01:30:20;;;;;;;37.78;8.32;;;28.30;85.70;;;;;;5065234;28;20340;-54
2021/12/07 01:33:16;;;;;;;;;;;28.20;85.90;;;;;;5065807;28;20040;-54
2021/12/07 01:59:58;;;;;;;13.45;7.32;;;28.10;87.20;;;;;;5064184;28;20069;-55
2021/12/07 02:02:28;;;;;;;23.05;6.93;;;28.10;87.20;;;;;;5064245;28;20043;-54
2021/12/07 02:04:56;;;;;;;16.75;6.80;;;28.10;87.60;;;;;;5061924;28;20040;-56
2021/12/07 02:07:23;;;;;;;12.45;7.03;;;28.10;87.90;;;;;;5064152;28;20024;-53
2021/12/07 02:09:58;;;;;;;17.67;6.90;;;28.00;88.00;;;;;;5063179;28;20023;-53
2021/12/07 02:12:26;;;;;;;12.05;7.75;;;28.00;88.20;;;;;;5060685;28;20029;-53
2021/12/07 02:14:55;;;;;;;16.25;7.00;;;28.00;88.20;;;;;;5061903;28;20201;-56
2021/12/07 02:17:25;;;;;;;19.02;7.35;;;28.00;88.10;;;;;;5063424;28;20355;-53
2021/12/07 02:19:51;;;;;;;22.52;7.53;;;28.00;88.20;;;;;;5057464;28;20035;-53
2021/12/07 02:22:19;;;;;;;18.55;7.10;;;28.00;88.10;;;;;;5046166;28;20052;-55
2021/12/07 02:24:47;;;;;;;21.77;7.40;;;28.00;88.40;;;;;;5062683;28;20313;-54
2021/12/07 02:27:13;;;;;;;22.27;8.65;;;27.90;88.20;;;;;;5063976;28;20242;-57
2021/12/07 02:29:40;;;;;;;20.45;8.95;;;27.90;88.10;;;;;;5063863;28;20336;-54
2021/12/07 02:32:07;;;;;;;16.80;7.93;;;27.90;88.20;;;;;;5063895;28;20033;-56
2021/12/07 02:34:36;;;;;;;14.52;10.02;;;27.90;88.10;;;;;;5064061;28;20021;-57
2021/12/07 02:37:03;;;;;;;17.67;7.85;;;27.80;88.00;;;;;;5063649;28;20033;-53
2021/12/07 02:39:37;;;;;;;20.95;7.85;;;27.80;88.30;;;;;;5062953;28;20071;-56
2021/12/07 02:42:04;;;;;;;17.33;7.80;;;27.80;88.40;;;;;;5061542;28;20036;-51
2021/12/07 02:44:32;;;;;;;15.52;7.18;;;27.80;88.40;;;;;;5062202;28;20048;-56
2021/12/07 02:46:59;;;;;;;15.98;7.60;;;27.70;88.40;;;;;;5057506;28;20028;-54
2021/12/07 02:49:25;;;;;;;10.20;6.68;;;27.70;88.60;;;;;;5062779;28;20134;-53
2021/12/07 02:51:52;;;;;;;11.38;6.45;;;27.70;88.60;;;;;;5062002;28;20024;-54
2021/12/07 02:54:20;;;;;;;11.77;6.20;;;27.70;88.70;;;;;;5062841;28;20056;-51
2021/12/07 02:56:48;;;;;;;12.77;5.90;;;27.60;88.60;;;;;;5063719;28;20029;-52
2021/12/07 02:59:17;;;;;;;16.98;6.18;;;27.60;88.70;;;;;;5055434;28;20032;-53
2021/12/07 03:01:49;;;;;;;11.35;6.00;;;27.60;88.60;;;;;;5055867;28;20061;-57
2021/12/07 03:04:25;;;;;;;10.98;6.05;;;27.60;88.30;;;;;;5062993;28;20140;-52
2021/12/07 03:07:17;;;;;;;9.60;5.63;;;27.60;88.50;;;;;;5062779;28;20024;-53
2021/12/07 03:26:03;;;;;;;10.27;6.00;;;27.40;88.30;;;;;;5067620;28;20017;-52
2021/12/07 03:28:41;;;;;;;17.38;6.40;;;27.50;88.40;;;;;;5067556;28;20042;-53
2021/12/07 03:31:09;;;;;;;10.30;6.32;;;27.40;88.10;;;;;;5067431;28;20326;-53
2021/12/07 03:33:36;;;;;;;9.75;5.95;;;27.50;88.20;;;;;;5067366;28;20043;-54
2021/12/07 03:36:04;;;;;;;12.80;6.18;;;27.40;88.00;;;;;;5067438;28;20264;-55
2021/12/07 03:38:31;;;;;;;12.38;6.57;;;27.50;87.90;;;;;;5067441;28;20024;-58
2021/12/07 03:40:58;;;;;;;11.90;6.10;;;27.50;87.70;;;;;;5067066;28;20035;-54
2021/12/07 03:43:25;;;;;;;14.00;5.97;;;27.50;87.70;;;;;;5067094;28;20029;-54
2021/12/07 03:45:51;;;;;;;10.52;5.53;;;27.50;87.60;;;;;;5066964;28;20017;-54
2021/12/07 03:48:19;;;;;;;10.23;5.78;;;27.50;87.30;;;;;;5066540;28;20062;-54
2021/12/07 03:50:45;;;;;;;12.02;5.68;;;27.50;87.10;;;;;;5066886;28;20133;-52
2021/12/07 03:53:13;;;;;;;10.93;5.65;;;27.40;86.90;;;;;;5067618;28;20032;-54
2021/12/07 03:55:40;;;;;;;8.73;5.43;;;27.40;86.80;;;;;;5066196;28;20028;-57
2021/12/07 03:58:07;;;;;;;9.75;5.70;;;27.50;86.60;;;;;;5067320;28;20032;-53
2021/12/07 04:00:37;;;;;;;11.82;5.90;;;27.40;86.40;;;;;;5064983;28;20056;-53
2021/12/07 04:03:08;;;;;;;15.10;5.95;;;27.40;86.20;;;;;;5065561;28;20252;-53
2021/12/07 04:05:44;;;;;;;10.43;6.10;;;27.40;86.00;;;;;;5067175;28;20024;-58
2021/12/07 04:08:12;;;;;;;9.93;5.28;;;27.40;85.90;;;;;;5067895;28;20436;-54
2021/12/07 04:10:39;;;;;;;10.73;5.60;;;27.40;85.70;;;;;;5066683;28;20049;-57
2021/12/07 04:13:05;;;;;;;8.35;5.22;;;27.40;85.60;;;;;;5066662;28;20028;-54
2021/12/07 04:15:32;;;;;;;9.35;5.18;;;27.40;85.30;;;;;;5066890;28;20080;-56
2021/12/07 04:17:59;;;;;;;10.95;5.03;;;27.40;85.30;;;;;;5067490;28;20028;-55
2021/12/07 04:20:26;;;;;;;6.57;4.88;;;27.40;85.10;;;;;;5067148;28;20032;-55
2021/12/07 04:22:54;;;;;;;10.00;4.95;;;27.40;84.80;;;;;;5067434;28;20332;-57
2021/12/07 04:25:23;;;;;;;6.47;4.75;;;27.40;84.80;;;;;;5065556;28;20090;-57
2021/12/07 04:27:52;;;;;;;11.40;4.97;;;27.30;84.60;;;;;;5067364;28;20017;-56
2021/12/07 04:30:22;;;;;;;9.77;4.75;;;27.30;84.60;;;;;;5066407;28;20052;-56
2021/12/07 04:32:49;;;;;;;8.18;4.93;;;27.40;84.60;;;;;;5065382;28;20056;-53
2021/12/07 04:35:17;;;;;;;32.63;5.90;;;27.40;84.60;;;;;;5066792;28;20035;-54
2021/12/07 04:37:44;;;;;;;8.27;4.53;;;27.30;84.50;;;;;;5067158;28;20266;-55
2021/12/07 04:40:15;;;;;;;5.05;4.10;;;27.30;84.30;;;;;;5066712;28;20032;-57
2021/12/07 04:42:42;;;;;;;8.35;4.53;;;27.30;84.00;;;;;;5066948;28;20032;-55
2021/12/07 04:45:15;;;;;;;6.93;5.03;;;27.30;83.80;;;;;;5066502;28;20032;-58
2021/12/07 04:48:03;;;;;;;8.50;4.60;;;27.30;83.70;;;;;;5066884;28;20028;-55
2021/12/07 04:58:28;;;;;;;7.80;4.40;;;27.30;82.80;;;;;;5035573;28;20241;-55
2021/12/07 05:00:55;;;;;;;7.00;5.15;;;27.30;82.50;;;;;;5066029;28;20364;-54
2021/12/07 05:03:23;;;;;;;8.00;5.50;;;27.30;82.50;;;;;;5065739;28;20045;-56
2021/12/07 05:05:52;;;;;;;8.07;5.07;;;27.30;82.20;;;;;;5066154;28;20023;-52
2021/12/07 05:08:34;;;;;;;9.85;5.50;;;27.20;82.10;;;;;;5063157;28;20278;-53
2021/12/07 05:13:35;;;;;;;8.93;5.32;;;27.20;82.00;;;;;;5065771;28;20139;-52
2021/12/07 05:16:30;;;;;;;6.88;4.65;;;27.20;81.90;;;;;;5063511;28;20025;-53
2021/12/07 05:19:04;;;;;;;8.70;4.70;;;27.20;81.80;;;;;;5065072;28;20020;-52
2021/12/07 05:24:21;;;;;;;6.78;4.30;;;27.20;81.90;;;;;;5020176;28;20052;-54
2021/12/07 05:40:10;;;;;;;6.15;4.32;;;27.10;81.40;;;;;;5064429;28;20016;-57
2021/12/07 05:42:38;;;;;;;6.85;4.47;;;27.10;81.30;;;;;;5064029;28;20262;-53
2021/12/07 05:45:11;;;;;;;8.68;4.30;;;27.10;81.20;;;;;;5065508;28;20041;-57
2021/12/07 05:47:39;;;;;;;7.07;4.25;;;27.10;81.10;;;;;;5065822;28;20025;-53
2021/12/07 05:50:08;;;;;;;5.63;4.00;;;27.10;81.00;;;;;;5065507;28;20017;-54
2021/12/07 05:52:34;;;;;;;5.50;4.00;;;27.10;80.90;;;;;;5065104;28;20036;-53
2021/12/07 05:55:01;;;;;;;6.85;3.50;;;27.10;80.70;;;;;;5064357;28;20229;-63
2021/12/07 05:57:27;;;;;;;5.25;3.85;;;27.10;80.40;;;;;;5062914;28;20028;-58
2021/12/07 05:59:54;;;;;;;9.30;4.00;;;27.00;80.40;;;;;;5063952;28;20044;-55
2021/12/07 06:02:21;;;;;;;5.30;3.75;;;27.10;80.40;;;;;;5064316;28;20208;-51
2021/12/07 06:04:48;;;;;;;7.57;3.88;;;27.00;80.30;;;;;;5064129;28;20036;-53
2021/12/07 06:07:14;;;;;;;7.22;3.90;;;27.00;80.20;;;;;;5064195;28;20021;-54
2021/12/07 06:09:41;;;;;;;5.22;3.83;;;27.00;80.30;;;;;;5064283;28;20023;-55
2021/12/07 06:12:08;;;;;;;5.75;3.63;;;27.00;80.30;;;;;;5064174;28;20254;-58
2021/12/07 06:14:41;;;;;;;6.57;4.07;;;27.00;80.60;;;;;;5063877;28;20236;-59
2021/12/07 06:17:09;;;;;;;7.63;3.85;;;27.00;80.90;;;;;;5061656;28;20024;-51
2021/12/07 06:19:35;;;;;;;10.65;4.32;;;27.00;81.00;;;;;;5063911;28;20017;-52
2021/12/07 06:22:03;;;;;;;7.78;4.00;;;26.90;81.00;;;;;;5063739;28;20056;-59
2021/12/07 06:24:30;;;;;;;6.63;4.03;;;26.90;81.10;;;;;;5063694;28;20079;-50
2021/12/07 06:26:57;;;;;;;8.48;4.00;;;26.90;81.30;;;;;;5063822;28;20032;-55
2021/12/07 06:29:23;;;;;;;11.35;4.13;;;26.90;81.50;;;;;;5063566;28;20013;-51
2021/12/07 06:31:50;;;;;;;6.22;3.97;;;26.90;82.00;;;;;;5063752;28;20304;-52
2021/12/07 06:34:17;;;;;;;7.13;4.90;;;26.90;82.20;;;;;;5063652;28;20309;-56
2021/12/07 06:36:43;;;;;;;6.10;4.57;;;26.90;82.40;;;;;;5063547;28;20021;-52
2021/12/07 06:39:10;;;;;;;6.63;4.13;;;26.90;82.60;;;;;;5063553;28;20088;-52
2021/12/07 06:41:37;;;;;;;11.00;4.78;;;26.90;82.90;;;;;;5063263;28;20105;-55
2021/12/07 06:44:04;;;;;;;7.18;4.28;;;26.80;82.90;;;;;;5063799;28;20029;-56
2021/12/07 06:46:31;;;;;;;11.02;4.32;;;26.80;82.90;;;;;;5064514;28;20332;-54
2021/12/07 06:48:57;;;;;;;6.75;4.00;;;26.80;83.10;;;;;;5063704;28;20063;-53
2021/12/07 06:51:24;;;;;;;8.00;4.22;;;26.80;82.90;;;;;;5064399;28;20313;-54
2021/12/07 06:53:51;;;;;;;5.80;3.97;;;26.80;83.00;;;;;;5064332;28;20039;-54
2021/12/07 06:56:17;;;;;;;8.15;4.28;;;26.70;83.10;;;;;;5064413;28;20084;-54
2021/12/07 06:58:44;;;;;;;8.43;4.25;;;26.70;83.10;;;;;;5064307;28;20079;-53
2021/12/07 07:01:11;;;;;;;7.05;4.13;;;26.70;83.30;;;;;;5064012;28;21643;-53
2021/12/07 07:03:39;;;;;;;7.00;4.05;;;26.70;83.50;;;;;;5064191;28;20013;-53
2021/12/07 07:06:06;;;;;;;6.97;4.15;;;26.60;83.50;;;;;;5064238;28;20009;-54
2021/12/07 07:08:32;;;;;;;8.63;4.53;;;26.60;83.40;;;;;;5063805;28;20017;-53
2021/12/07 07:10:59;;;;;;;8.68;3.95;;;26.60;83.50;;;;;;5064057;28;20021;-55
2021/12/07 07:13:26;;;;;;;8.35;3.97;;;26.50;83.60;;;;;;5064208;28;20037;-53
2021/12/07 07:15:53;;;;;;;6.47;4.03;;;26.60;83.60;;;;;;5063940;28;20029;-53
2021/12/07 07:18:19;;;;;;;5.25;3.83;;;26.60;83.50;;;;;;5064139;28;20028;-53
2021/12/07 07:20:46;;;;;;;5.18;3.70;;;26.60;83.50;;;;;;5064063;28;20024;-54
2021/12/07 07:23:12;;;;;;;7.47;4.30;;;26.50;83.40;;;;;;5064402;28;20033;-54
2021/12/07 07:25:39;;;;;;;6.25;4.00;;;26.50;83.70;;;;;;5064020;28;20017;-53
2021/12/07 07:28:05;;;;;;;4.53;3.55;;;26.50;83.70;;;;;;5064025;28;20029;-55
2021/12/07 07:30:32;;;;;;;5.38;3.88;;;26.40;83.60;;;;;;5064044;28;20040;-54
2021/12/07 07:32:58;;;;;;;8.52;4.20;;;26.40;83.60;;;;;;5064510;28;20056;-54
2021/12/07 07:35:25;;;;;;;6.25;3.90;;;26.40;83.70;;;;;;5064102;28;20025;-53
2021/12/07 07:37:54;;;;;;;10.70;4.30;;;26.40;83.70;;;;;;5064297;28;20029;-54
2021/12/07 07:40:23;;;;;;;6.18;3.85;;;26.40;83.90;;;;;;5064129;28;20021;-54
2021/12/07 07:42:50;;;;;;;7.82;3.70;;;26.30;84.00;;;;;;5064261;28;20032;-54
2021/12/07 07:45:17;;;;;;;8.48;4.10;;;26.30;84.20;;;;;;5063855;28;20040;-54
2021/12/07 07:47:44;;;;;;;7.50;3.95;;;26.30;84.20;;;;;;5064251;28;20021;-58
2021/12/07 07:50:13;;;;;;;7.82;4.10;;;26.30;84.40;;;;;;5063931;28;20027;-53
2021/12/07 07:52:40;;;;;;;6.78;3.97;;;26.30;84.50;;;;;;5064133;28;20269;-54
2021/12/07 07:55:08;;;;;;;9.25;4.18;;;26.20;84.30;;;;;;5063980;28;20281;-53
2021/12/07 07:57:35;;;;;;;6.60;3.70;;;26.20;84.10;;;;;;5064263;28;20029;-53
2021/12/07 08:00:02;;;;;;;7.43;3.85;;;26.20;83.00;;;;;;5065443;28;20041;-55
2021/12/07 08:02:29;;;;;;;10.00;3.75;;;26.20;83.20;;;;;;5067868;28;20032;-54
2021/12/07 08:04:55;;;;;;;5.75;3.50;;;26.30;82.70;;;;;;5067579;28;20024;-58
2021/12/07 08:07:22;;;;;;;6.82;3.70;;;26.30;82.50;;;;;;5067672;28;20027;-54
2021/12/07 08:09:49;;;;;;;6.22;3.10;;;26.20;82.00;;;;;;5067509;28;20055;-56
2021/12/07 08:12:15;;;;;;;6.80;3.33;;;26.30;81.70;;;;;;5067384;28;20242;-53
2021/12/07 08:14:42;;;;;;;7.20;3.25;;;26.20;81.60;;;;;;5066759;28;20198;-54
2021/12/07 08:17:08;;;;;;;4.88;3.50;;;26.20;81.60;;;;;;5066950;28;20092;-54
2021/12/07 08:19:36;;;;;;;5.85;3.60;;;26.20;81.60;;;;;;5066750;28;20066;-53
2021/12/07 08:22:03;;;;;;;7.82;3.30;;;26.20;81.70;;;;;;5066375;28;20032;-54
2021/12/07 08:24:30;;;;;;;8.95;3.80;;;26.20;81.60;;;;;;5066763;28;20020;-54
2021/12/07 08:26:56;;;;;;;5.05;3.33;;;26.20;81.60;;;;;;5066197;28;20028;-53
2021/12/07 08:29:23;;;;;;;14.82;8.75;;;26.20;82.00;;;;;;5066447;28;20013;-54
2021/12/07 08:31:50;;;;;;;12.77;9.50;;;26.20;82.10;;;;;;5066655;28;20213;-54
2021/12/07 08:34:17;;;;;;;17.83;14.27;;;26.10;82.20;;;;;;5066475;28;20021;-54
2021/12/07 08:36:43;;;;;;;19.25;14.90;;;26.10;82.40;;;;;;5065106;28;20268;-58
2021/12/07 08:39:10;;;;;;;15.95;13.23;;;26.10;82.40;;;;;;5066331;28;20127;-53
2021/12/07 08:41:37;;;;;;;15.32;13.68;;;26.10;82.40;;;;;;5066347;28;20328;-57
2021/12/07 08:44:04;;;;;;;18.17;12.55;;;26.00;82.40;;;;;;5066117;28;20013;-53
2021/12/07 08:46:31;;;;;;;16.00;12.88;;;26.00;82.60;;;;;;5066396;28;20088;-57
2021/12/07 08:48:57;;;;;;;13.80;12.23;;;26.00;83.30;;;;;;5066109;28;20017;-54
2021/12/07 08:51:24;;;;;;;12.77;11.27;;;26.00;82.90;;;;;;5066046;28;20025;-56
2021/12/07 08:54:00;;;;;;;13.85;10.25;;;26.00;82.90;;;;;;5066212;28;20075;-53
2021/12/07 09:01:56;;;;;;;9.52;7.38;;;25.90;83.20;;;;;;5065925;28;20284;-57
2021/12/07 09:04:23;;;;;;;9.27;7.38;;;25.90;83.50;;;;;;5065918;28;20052;-56
2021/12/07 09:06:50;;;;;;;9.50;5.97;;;25.90;83.60;;;;;;5065994;28;20293;-56
2021/12/07 09:09:18;;;;;;;8.15;6.05;;;25.90;83.70;;;;;;5065618;28;20210;-59
2021/12/07 09:11:45;;;;;;;11.90;6.38;;;25.90;83.70;;;;;;5064914;28;20048;-53
2021/12/07 09:14:15;;;;;;;8.07;5.80;;;25.90;83.90;;;;;;5065614;28;20217;-56
2021/12/07 09:16:44;;;;;;;8.30;5.78;;;25.80;84.00;;;;;;5065635;28;20048;-56
2021/12/07 09:19:10;;;;;;;8.25;5.40;;;25.80;84.20;;;;;;5065826;28;20070;-53
2021/12/07 09:21:38;;;;;;;9.13;5.38;;;25.90;84.10;;;;;;5065588;28;20024;-54
2021/12/07 09:24:05;;;;;;;8.05;4.90;;;25.90;84.30;;;;;;5065418;28;20306;-53
2021/12/07 09:26:32;;;;;;;9.55;5.32;;;25.80;84.20;;;;;;5065566;28;20084;-54
2021/12/07 09:28:59;;;;;;;9.55;4.75;;;25.80;84.20;;;;;;5064500;28;20317;-57
2021/12/07 09:31:26;;;;;;;10.68;5.10;;;25.80;84.20;;;;;;5065315;28;20029;-54
2021/12/07 09:33:54;;;;;;;10.73;5.10;;;25.80;84.30;;;;;;5065237;28;20039;-53
2021/12/07 09:36:21;;;;;;;7.50;5.18;;;25.80;84.40;;;;;;5065269;28;20079;-54
2021/12/07 09:38:48;;;;;;;7.50;4.93;;;25.80;84.40;;;;;;5065092;28;20035;-53
2021/12/07 09:41:15;;;;;;;9.10;4.80;;;25.80;84.60;;;;;;5065160;28;20021;-53
2021/12/07 09:43:42;;;;;;;11.68;4.78;;;25.80;84.50;;;;;;5065037;28;20238;-57
2021/12/07 09:46:11;;;;;;;8.25;4.82;;;25.80;84.50;;;;;;5064963;28;20028;-57
2021/12/07 09:48:40;;;;;;;8.95;4.80;;;25.70;84.40;;;;;;5064983;28;20025;-54
2021/12/07 09:51:09;;;;;;;6.05;4.30;;;25.70;84.40;;;;;;5065020;28;20013;-54
2021/12/07 09:53:36;;;;;;;11.15;4.30;;;25.70;84.50;;;;;;5065039;28;20143;-54
2021/12/07 09:56:06;;;;;;;12.52;5.10;;;25.80;85.20;;;;;;5064869;28;20085;-54
2021/12/07 09:58:35;;;;;;;9.40;4.85;;;25.70;84.80;;;;;;5064803;28;20028;-53
2021/12/07 10:01:02;;;;;;;9.73;4.60;;;25.70;85.10;;;;;;5047365;28;20095;-54
2021/12/07 10:03:28;;;;;;;11.02;4.88;;;25.70;85.10;;;;;;5064809;28;20029;-53
2021/12/07 10:05:55;;;;;;;13.52;5.25;;;25.70;85.10;;;;;;5064124;28;20025;-54
2021/12/07 10:08:22;;;;;;;15.70;5.38;;;25.70;85.30;;;;;;5064547;28;20017;-53
2021/12/07 10:10:56;;;;;;;17.05;6.40;;;25.60;85.30;;;;;;5064614;28;20363;-54
2021/12/07 10:13:28;;;;;;;15.63;6.43;;;25.60;85.50;;;;;;5064743;28;20252;-55
2021/12/07 10:15:56;;;;;;;12.05;6.15;;;25.60;85.50;;;;;;5064696;28;20031;-52
2021/12/07 10:18:25;;;;;;;17.27;6.63;;;25.60;85.70;;;;;;5064474;28;20344;-55
2021/12/07 10:21:13;;;;;;;13.60;6.78;;;25.60;85.80;;;;;;5064329;28;20325;-60
2021/12/07 10:23:49;;;;;;;15.60;7.60;;;25.60;85.70;;;;;;5064291;28;20032;-58
2021/12/07 10:26:26;;;;;;;17.98;7.07;;;25.60;85.90;;;;;;5064185;28;20017;-53
2021/12/07 10:28:59;;;;;;;19.95;7.20;;;25.50;86.00;;;;;;5064299;28;20024;-53
2021/12/07 10:31:41;;;;;;;11.65;6.82;;;25.50;85.90;;;;;;5064148;28;20059;-53
2021/12/07 10:34:20;;;;;;;13.93;6.60;;;25.50;85.90;;;;;;5064235;28;20088;-53
2021/12/07 10:36:49;;;;;;;17.10;6.90;;;25.50;86.00;;;;;;5064209;28;20028;-53
2021/12/07 10:39:41;;;;;;;22.45;7.00;;;25.50;86.20;;;;;;5064233;28;20017;-53
2021/12/07 10:42:33;;;;;;;11.45;6.07;;;25.50;86.30;;;;;;5055098;28;20041;-53
2021/12/07 10:45:05;;;;;;;14.85;6.22;;;25.50;86.00;;;;;;5064141;28;20021;-53
2021/12/07 10:47:31;;;;;;;;;;;25.50;85.80;;;;;;5064700;28;20544;-53
2021/12/07 10:50:01;;;;;;;10.80;5.88;;;25.50;85.70;;;;;;5063906;28;19937;-54
2021/12/07 10:52:29;;;;;;;9.15;5.40;;;25.50;85.60;;;;;;5064195;28;20024;-57
2021/12/07 10:55:26;;;;;;;9.40;5.30;;;25.50;85.20;;;;;;5064140;28;20025;-55
2021/12/07 10:57:58;;;;;;;9.30;4.75;;;25.50;84.90;;;;;;5064044;28;20025;-54
2021/12/07 11:00:46;;;;;;;14.27;5.35;;;25.50;84.50;;;;;;5063631;28;20047;-54
2021/12/07 11:05:05;;;;;;;10.13;4.55;;;25.50;83.90;;;;;;5017501;28;20463;-54
2021/12/07 11:07:31;;;;;;;11.82;4.70;;;25.50;84.50;;;;;;5018018;28;20060;-53
2021/12/07 11:10:16;;;;;;;11.25;4.40;;;25.50;84.50;;;;;;5018005;28;20022;-53
2021/12/07 11:12:53;;;;;;;11.85;4.53;;;25.50;84.50;;;;;;5017764;28;20044;-54
2021/12/07 11:15:26;;;;;;;17.05;5.22;;;25.50;84.60;;;;;;5018093;28;20026;-56
2021/12/07 11:17:56;;;;;;;20.52;5.35;;;25.50;84.50;;;;;;5017805;28;20033;-54
2021/12/07 11:20:23;;;;;;;25.75;5.57;;;25.50;84.50;;;;;;5017907;28;20014;-53
2021/12/07 11:22:56;;;;;;;14.20;5.50;;;25.50;84.70;;;;;;5009994;28;20030;-54
2021/12/07 11:25:42;;;;;;;23.00;5.95;;;25.50;84.80;;;;;;4997981;28;20038;-51
2021/12/07 11:31:24;;;;;;;15.60;5.57;;;25.50;84.80;;;;;;4996518;28;20030;-51
2021/12/07 11:33:54;;;;;;;13.15;5.18;;;25.50;84.80;;;;;;4996604;28;20246;-54
2021/12/07 11:36:28;;;;;;;13.20;5.47;;;25.50;84.60;;;;;;4996303;28;20211;-53
2021/12/07 11:38:56;;;;;;;18.30;5.40;;;25.60;84.60;;;;;;4996159;28;20091;-57
2021/12/07 11:41:32;;;;;;;8.82;4.65;;;25.60;84.30;;;;;;4996919;28;20253;-59
2021/12/07 11:44:04;;;;;;;12.50;5.38;;;25.60;84.20;;;;;;4998160;28;20031;-58
2021/12/07 11:46:33;;;;;;;11.18;6.22;;;25.70;84.20;;;;;;4998012;28;20024;-57
2021/12/07 11:49:14;;;;;;;18.45;6.53;;;25.70;84.40;;;;;;4997624;28;20058;-53
2021/12/07 11:51:43;;;;;;;17.75;8.55;;;25.80;84.00;;;;;;4997783;28;20184;-56
2021/12/07 11:54:11;;;;;;;25.27;7.90;;;25.80;83.80;;;;;;4997690;28;20042;-53
2021/12/07 11:56:40;;;;;;;24.38;7.80;;;25.90;83.70;;;;;;4997120;28;20060;-57
2021/12/07 11:59:07;;;;;;;25.77;8.57;;;25.90;83.70;;;;;;4998103;28;20238;-54
2021/12/07 12:01:34;;;;;;;22.65;7.68;;;26.00;83.60;;;;;;4997683;28;20064;-51
2021/12/07 12:04:01;;;;;;;23.27;7.72;;;26.00;83.40;;;;;;4997344;28;20335;-53
2021/12/07 12:06:29;;;;;;;22.95;7.07;;;26.00;83.40;;;;;;4997707;28;20031;-52
2021/12/07 12:08:57;;;;;;;17.83;6.88;;;26.10;83.40;;;;;;4997864;28;20202;-51
2021/12/07 12:11:50;;;;;;;27.15;7.22;;;26.20;83.50;;;;;;4997517;28;20331;-54
2021/12/07 12:14:54;;;;;;;21.70;6.78;;;26.20;83.40;;;;;;4995955;28;20030;-53
2021/12/07 12:17:54;;;;;;;23.98;6.97;;;26.20;83.70;;;;;;4984485;28;20072;-53
2021/12/07 12:20:32;;;;;;;23.48;7.05;;;26.30;83.60;;;;;;4984353;28;20034;-54
2021/12/07 12:23:17;;;;;;;24.85;6.25;;;26.30;83.70;;;;;;4984102;28;20038;-53
2021/12/07 12:25:44;;;;;;;16.75;5.90;;;26.30;83.70;;;;;;4984489;28;20082;-54
2021/12/07 12:28:11;;;;;;;16.88;5.32;;;26.30;84.10;;;;;;4983874;28;20022;-58
2021/12/07 12:30:40;;;;;;;16.70;5.25;;;26.30;84.10;;;;;;4984219;28;20019;-53
2021/12/07 12:33:10;;;;;;;36.45;6.55;;;26.40;84.00;;;;;;4984308;28;20031;-58
2021/12/07 12:35:41;;;;;;;19.77;5.40;;;26.40;84.20;;;;;;4984063;28;20023;-54
2021/12/07 12:38:25;;;;;;;18.38;6.00;;;26.40;84.20;;;;;;4984283;28;20026;-53
2021/12/07 12:41:07;;;;;;;22.63;5.70;;;26.50;84.50;;;;;;4983983;28;20027;-55
2021/12/07 12:43:40;;;;;;;;;;;26.50;84.60;;;;;;4984688;28;20058;-54
2021/12/07 12:46:09;;;;;;;13.02;4.95;;;26.50;84.40;;;;;;4984091;28;20191;-58
2021/12/07 12:48:35;;;;;;;12.52;5.07;;;26.40;84.30;;;;;;4984161;28;20039;-53
2021/12/07 12:51:06;;;;;;;15.82;5.45;;;26.50;84.20;;;;;;4984019;28;20019;-58
2021/12/07 12:53:34;;;;;;;13.93;4.88;;;26.50;84.20;;;;;;4983949;28;20030;-55
2021/12/07 12:56:07;;;;;;;13.40;4.70;;;26.50;84.10;;;;;;4983850;28;20027;-56
2021/12/07 12:58:36;;;;;;;17.15;4.40;;;26.60;84.10;;;;;;4984088;28;20071;-53
2021/12/07 13:01:03;;;;;;;15.18;4.93;;;26.60;84.20;;;;;;4983687;28;20015;-54
2021/12/07 13:03:48;;;;;;;13.07;4.57;;;26.60;84.60;;;;;;4983702;28;20381;-53
2021/12/07 13:06:18;;;;;;;12.75;4.40;;;26.60;84.30;;;;;;4983719;28;20077;-55
2021/12/07 13:09:18;;;;;;;14.57;4.95;;;26.60;83.60;;;;;;4984047;28;20315;-52
2021/12/07 13:11:59;;;;;;;16.70;4.78;;;26.60;83.80;;;;;;4983838;28;20019;-52
2021/12/07 13:14:26;;;;;;;12.85;4.53;;;26.70;83.80;;;;;;4984098;28;20200;-55
2021/12/07 13:17:01;;;;;;;23.13;5.03;;;26.70;83.70;;;;;;4983484;28;20045;-52
2021/12/07 13:19:31;;;;;;;12.63;4.50;;;26.70;83.80;;;;;;4983587;28;20080;-56
2021/12/07 13:22:06;;;;;;;9.88;4.38;;;26.70;84.20;;;;;;4983279;28;20027;-60
2021/12/07 13:24:41;;;;;;;12.38;4.50;;;26.70;83.20;;;;;;4983842;28;20022;-53
2021/12/07 13:27:14;;;;;;;8.82;4.22;;;26.80;83.10;;;;;;4982379;28;20022;-52
2021/12/07 13:29:53;;;;;;;10.85;4.38;;;26.80;82.90;;;;;;4983884;28;20034;-53
2021/12/07 13:32:20;;;;;;;10.27;4.10;;;26.80;83.00;;;;;;4983373;28;20026;-53
2021/12/07 13:35:04;;;;;;;10.18;3.70;;;26.90;83.20;;;;;;4983109;28;20098;-57
2021/12/07 13:37:48;;;;;;;9.90;3.97;;;26.90;83.30;;;;;;4983217;28;20089;-54
2021/12/07 13:40:24;;;;;;;15.90;4.95;;;26.90;83.30;;;;;;4983285;28;20207;-54
2021/12/07 13:42:53;;;;;;;9.98;4.68;;;26.90;83.50;;;;;;4983275;28;20027;-55
2021/12/07 13:45:22;;;;;;;8.93;4.20;;;27.00;83.40;;;;;;4983046;28;20035;-56
2021/12/07 13:47:51;;;;;;;7.80;4.40;;;27.00;83.30;;;;;;4983073;28;20023;-57
2021/12/07 13:50:31;;;;;;;8.60;4.45;;;27.00;83.30;;;;;;4983024;28;20022;-62
2021/12/07 13:52:58;;;;;;;10.65;4.35;;;27.00;83.20;;;;;;4983116;28;20306;-56
2021/12/07 13:55:31;;;;;;;7.03;4.00;;;27.10;83.30;;;;;;4983074;28;20031;-53
2021/12/07 13:58:00;;;;;;;8.98;4.20;;;27.10;83.40;;;;;;4982851;28;20034;-54
2021/12/07 14:00:33;;;;;;;15.57;4.82;;;27.10;83.20;;;;;;4982985;28;20023;-52
2021/12/07 14:03:08;;;;;;;13.07;4.05;;;27.20;83.20;;;;;;4982455;28;20039;-54
2021/12/07 14:05:40;;;;;;;8.82;4.13;;;27.20;82.50;;;;;;4982874;28;20018;-53
2021/12/07 14:08:12;;;;;;;5.78;3.95;;;27.20;82.40;;;;;;4982879;28;20319;-54
2021/12/07 14:10:42;;;;;;;10.40;4.00;;;27.20;82.00;;;;;;4982732;28;20035;-53
2021/12/07 14:13:08;;;;;;;9.13;4.10;;;27.20;82.00;;;;;;4981743;28;20094;-51
2021/12/07 14:15:38;;;;;;;9.05;3.70;;;27.30;81.70;;;;;;4982508;28;20026;-57
2021/12/07 14:18:07;;;;;;;8.63;3.63;;;27.30;81.40;;;;;;4980994;28;20023;-53
2021/12/07 14:20:41;;;;;;;8.25;4.43;;;27.30;81.30;;;;;;4977977;28;20123;-52
2021/12/07 14:23:21;;;;;;;8.45;3.65;;;27.30;81.20;;;;;;4973757;28;20230;-52
2021/12/07 14:26:01;;;;;;;8.20;3.60;;;27.30;81.20;;;;;;4974759;28;20077;-55
2021/12/07 14:28:44;;;;;;;10.48;3.88;;;27.40;80.70;;;;;;4968136;28;20028;-52
2021/12/07 14:31:16;;;;;;;8.30;3.53;;;27.40;80.60;;;;;;4964063;28;20030;-51
2021/12/07 14:33:54;;;;;;;7.28;3.90;;;27.40;80.60;;;;;;4971834;28;20031;-58